Hlavní strana
METAR-TAF:

METAR-TAF

Letiště :

Nuakšott, Mauritánie

zeměpisná šířka: 18-18-36N, zeměpisná délka: 015-58-11W, výška: 3 m

Aktuální stav počasí

Zpráva byla vytvořena před 32 minutami, v 03:30 UTC
Východoseverovýchodní vítr 7 kt
Teplota 14°C
Vlhkost vzduchu 23%
Tlak 1014 hPa
Viditelnost: 4000 m
rozsáhlý prach

METAR: GQNO 230330Z 06007KT 4000 DU NSC 14/M07 Q1014 NOSIG

Čas: 04:02 (04:02 UTC)

Předpověď počasí

Zpráva byla vytvořena před 5 hodinami a 2 minutami, v 23:00 UTC
Předpověď platná od 23 v 00 UTC do 24 v 06 UTC
Severovýchodní vítr 8 kt
Viditelnost: 6000 m
Změna
od 23 v 08 UTC do 23 v 10 UTC
Východní vítr 18 kt
Viditelnost: 3500 m
zvířený prach
Změna
od 23 v 15 UTC do 23 v 19 UTC
Východoseverovýchodní vítr 8 kt
Viditelnost: 7000 m

TAF: GQNO 222300Z 2300/2406 05008KT 6000 NSC BECMG 2308/2310 09018KT 3500 BLDU BECMG 2315/2319 06008KT 7000 NSW

Stav a předpovědi počasí z více než 4 000 letišť (zprávy METAR a TAF).

Červené a žluté tečky na mapě představují dostupné meteorologické stanice.

Když kurzor umístíte na tečku, zobrazí se název stanice.

Pak kliknutím zobrazíte stav a předpověď počasí.

Chcete-li změnit mapu, kliknutím na zelené tlačítko se znaménkem +mapu přiblížíte, kliknutím na zelené tlačítko se znaménkem – mapu oddálíte a kliknutím na zelené šipky přejdete na sousední mapy.


METAR-TAF: